Etusivu
METAR-TAF:

METAR-TAF

Lentoasemat :

Sundsvall-Timrån lentoasema

Sundsvall-Härnösand, Ruotsi

Leveyspiiri: 62-32N, Pituuspiiri: 017-27E, korkeus merenpinnasta: 4 m

Tämänhetkinen sää

Tämä raportti tehtiin 12 minuuttia sitten, kello 05.20 UTC
Tuuli 2 kn eri suunnista
Lämpötila 11°C
Kosteus 94%
Ilmanpaine 1013 hPa
Näkyvyys 10 km tai enemmän

METAR: ESNN 030520Z AUTO VRB02KT 9999 FEW055/// OVC086/// 11/10 Q1013

Aika: 07:32 (05:32 UTC)

Sääennuste

Tämä raportti tehtiin 18 tuntia ja 2 minuuttia sitten, kello 11.30 UTC
Ennuste voimassa 02. päivästä klo 12 UTC - 02. päivään klo 15 UTC
Tuuli 8 kn etelästä/kaakosta
Näkyvyys 10 km tai enemmän
Muutamia pilviä 4000 ft:n korkeudessa
Hajanaisia pilviä 6000 ft:n korkeudessa
Todennäköisyys 40%
02. päivästä klo 12 UTC - 02. päivään klo 15 UTC
Hajanaisia pilviä 4000 ft:n korkeudessa, Cumulonimbus.

TAF: ESNN 021130Z 0212/0215 15008KT 9999 FEW040 SCT060 PROB40 0212/0215 SCT040CB

Säähavainnot ja -ennusteet yli 4000 lentoasemalta (METAR- ja TAF-raportit).

Käytössä olevat sääasemat on merkitty karttaan keltaisilla ja punaisilla pisteillä.

Aseta hiiri pisteen päälle nähdäksesi sääaseman nimen.

Klikkaa sitten nähdäksesi säähavainnot ja -ennusteet.

Kartan vaihtaminen: klikkaa mustalla rastilla varustettuja vihreitä pisteitä, niin voit zoomata sisään; viivalla varustettua vihreää pistettä, niin voit zoomata ulos tai vihreitä nuolia, niin pääset viereisille kartoille.


METAR-TAF: